KGGG

East Texas Regional Airport

Longview, Texas, USA
METAR KGGG 211953Z COR 16018G24KT 10SM BKN022 22/18 A2988 RMK AO2 SLP113 T02170178
Observed Flight Rules
Jan-21 @ 19:53 UTC (22 minutes ago) Marginal Visual Flight Rules
Wind Visibility Clouds
160° at 18 knots
 Gusting to 24 knots
10 miles
  • Broken at 2,200' AGL
Temperatures Readings
Current 22°C / 72°F
Dewpoint 18°C / 64°F
Humidity 78%
Altimeter 29.88" Hg
Pressure 1011.3 hPa
Elevation 107
METAR KGGG 211953Z COR 16018G24KT 10SM BKN022 22/18 A2988 RMK AO2 SLP113 T02170178
Observed Flight Rules
Jan-21 @ 19:53 UTC
(22 minutes ago)
MVFR
Wind Visibility
160° at 18 knots
 Gusting to 24 knots
10 miles
Clouds
  • Broken at 2,200' AGL
Temperature Dewpoint
22°C / 72°F 18°C / 64°F
Humidity Altimeter Pressure
78% 29.88" Hg 1011.3 hPa